createdAt,value
2018-12-20T00:03:33.360Z,7.3
2018-12-20T00:08:35.702Z,7.4
2018-12-20T00:13:38.030Z,7.4
2018-12-20T00:18:40.179Z,7.4
2018-12-20T00:23:42.528Z,7.4
2018-12-20T00:28:44.814Z,7.4
2018-12-20T00:33:47.179Z,7.4
2018-12-20T00:38:49.498Z,7.4
2018-12-20T00:43:51.686Z,7.3
2018-12-20T00:48:54.022Z,7.3
2018-12-20T00:53:56.363Z,7.3
2018-12-20T00:58:58.616Z,7.3
2018-12-20T01:04:00.807Z,7.3
2018-12-20T01:09:03.102Z,7.3
2018-12-20T01:14:05.533Z,7.3
2018-12-20T01:19:07.624Z,7.2
2018-12-20T01:24:09.932Z,7.2
2018-12-20T01:29:12.654Z,7.1
2018-12-20T01:34:14.636Z,7
2018-12-20T01:39:16.865Z,7
2018-12-20T01:44:19.202Z,6.9
2018-12-20T01:49:21.828Z,6.9
2018-12-20T01:54:23.881Z,6.9
2018-12-20T01:59:25.959Z,6.9
2018-12-20T02:04:28.407Z,6.8
2018-12-20T02:09:30.712Z,6.8
2018-12-20T02:14:33.126Z,6.8
2018-12-20T02:19:35.154Z,6.8
2018-12-20T02:24:37.540Z,6.8
2018-12-20T02:29:39.917Z,6.7
2018-12-20T02:34:42.286Z,6.7
2018-12-20T02:39:44.380Z,6.6
2018-12-20T02:44:46.886Z,6.6
2018-12-20T02:49:48.967Z,6.6
2018-12-20T02:54:51.389Z,6.6
2018-12-20T02:59:53.497Z,6.6
2018-12-20T03:04:56.066Z,6.6
2018-12-20T03:09:58.126Z,6.5
2018-12-20T03:15:00.502Z,6.4
2018-12-20T03:20:02.734Z,6.4
2018-12-20T03:25:05.018Z,6.3
2018-12-20T03:35:09.567Z,6.4
2018-12-20T03:40:11.905Z,6.4
2018-12-20T03:45:14.202Z,6.4
2018-12-20T03:50:16.535Z,6.4
2018-12-20T03:55:18.925Z,6.5
2018-12-20T04:00:21.093Z,6.5
2018-12-20T04:05:23.356Z,6.5
2018-12-20T04:10:25.764Z,6.5
2018-12-20T04:15:28.106Z,6.6
2018-12-20T04:20:30.344Z,6.6
2018-12-20T04:25:32.649Z,6.7
2018-12-20T04:30:34.853Z,6.7
2018-12-20T04:35:37.203Z,6.8
2018-12-20T04:40:39.550Z,6.8
2018-12-20T04:45:46.670Z,6.9
2018-12-20T04:50:44.179Z,6.9
2018-12-20T04:55:46.254Z,6.9
2018-12-20T05:00:48.682Z,6.9
2018-12-20T05:05:50.879Z,7
2018-12-20T05:10:53.376Z,7
2018-12-20T05:15:56.349Z,7
2018-12-20T05:20:57.750Z,7
2018-12-20T05:26:00.154Z,7
2018-12-20T05:31:02.452Z,7
2018-12-20T05:36:04.843Z,7
2018-12-20T05:41:07.178Z,7
2018-12-20T05:46:09.561Z,7
2018-12-20T05:51:11.577Z,7
2018-12-20T05:56:13.931Z,7
2018-12-20T06:01:16.090Z,7
2018-12-20T06:06:18.527Z,7
2018-12-20T06:11:20.766Z,7.1
2018-12-20T06:16:23.220Z,7.1
2018-12-20T06:21:25.257Z,7.1
2018-12-20T06:26:27.663Z,7.1
2018-12-20T06:31:29.863Z,7.1
2018-12-20T06:36:32.182Z,7.1
2018-12-20T06:41:34.415Z,7.1
2018-12-20T06:46:36.817Z,7.1
2018-12-20T06:51:39.035Z,7.1
2018-12-20T06:56:41.322Z,7.2
2018-12-20T07:01:43.718Z,7.2
2018-12-20T07:06:45.901Z,7.2
2018-12-20T07:11:48.176Z,7.2
2018-12-20T07:16:50.614Z,7.2
2018-12-20T07:21:52.883Z,7.2
2018-12-20T07:26:55.044Z,7.2
2018-12-20T07:31:57.482Z,7.1
2018-12-20T07:36:59.727Z,7.1
2018-12-20T07:42:02.008Z,7
2018-12-20T07:47:04.298Z,7.1
2018-12-20T07:52:06.580Z,7.1
2018-12-20T07:57:08.836Z,7.1
2018-12-20T08:02:11.253Z,7.1
2018-12-20T08:07:13.484Z,7.1
2018-12-20T08:12:15.751Z,7.2
2018-12-20T08:17:17.984Z,7.2
2018-12-20T08:22:20.481Z,7.1
2018-12-20T08:27:22.685Z,7.1
2018-12-20T08:32:24.970Z,7
2018-12-20T08:37:27.150Z,7
2018-12-20T08:42:29.571Z,7
2018-12-20T08:47:31.782Z,7.1
2018-12-20T08:52:34.065Z,7.2
2018-12-20T08:57:36.404Z,7.2
2018-12-20T09:02:38.729Z,7.3
2018-12-20T09:07:41.063Z,7.4
2018-12-20T09:12:43.311Z,7.6
2018-12-20T09:17:45.646Z,7.6
2018-12-20T09:22:47.868Z,7.6
2018-12-20T09:27:50.080Z,7.6
2018-12-20T09:32:52.472Z,7.6
2018-12-20T09:37:54.796Z,7.6
2018-12-20T09:42:57.025Z,7.6
2018-12-20T09:47:59.307Z,7.6
2018-12-20T09:53:01.680Z,7.7
2018-12-20T09:58:03.924Z,7.7
2018-12-20T10:03:06.228Z,7.7
2018-12-20T10:08:08.576Z,7.7
2018-12-20T10:13:10.914Z,7.7
2018-12-20T10:18:13.137Z,7.8
2018-12-20T10:23:15.367Z,7.8
2018-12-20T10:28:17.713Z,7.9
2018-12-20T10:33:20.025Z,7.9
2018-12-20T10:38:22.415Z,7.9
2018-12-20T10:43:24.628Z,8
2018-12-20T10:48:26.850Z,7.9
2018-12-20T10:53:29.106Z,7.9
2018-12-20T10:58:31.562Z,7.8
2018-12-20T11:03:33.685Z,7.8
2018-12-20T11:08:36.029Z,7.8
2018-12-20T11:13:38.316Z,7.8
2018-12-20T11:18:40.641Z,7.7
2018-12-20T11:23:42.982Z,7.6
2018-12-20T11:28:45.234Z,7.5
2018-12-20T11:33:47.516Z,7.4
2018-12-20T11:38:49.713Z,7.4
2018-12-20T11:43:52.235Z,7.4
2018-12-20T11:48:54.346Z,7.5
2018-12-20T11:53:56.719Z,7.5
2018-12-20T11:58:59.022Z,7.5
2018-12-20T12:04:01.205Z,7.5
2018-12-20T12:09:03.492Z,7.5
2018-12-20T12:14:05.852Z,7.6
2018-12-20T12:19:08.370Z,7.7
2018-12-20T12:24:10.461Z,7.7
2018-12-20T12:29:12.699Z,7.7
2018-12-20T12:34:15.091Z,7.8
2018-12-20T12:39:17.405Z,7.8
2018-12-20T12:44:19.656Z,7.9
2018-12-20T12:49:24.073Z,7.9
2018-12-20T12:54:24.131Z,7.9
2018-12-20T12:59:26.654Z,7.9
2018-12-20T13:04:28.723Z,7.8
2018-12-20T13:09:31.008Z,7.7
2018-12-20T13:14:33.449Z,7.6
2018-12-20T13:19:35.664Z,7.7
2018-12-20T13:24:37.990Z,7.7
2018-12-20T13:29:40.306Z,7.8
2018-12-20T13:34:42.508Z,7.8
2018-12-20T13:39:44.787Z,7.9
2018-12-20T13:44:47.254Z,8
2018-12-20T13:49:49.377Z,8
2018-12-20T13:54:51.768Z,8
2018-12-20T13:59:54.073Z,8
2018-12-20T14:04:56.523Z,8
2018-12-20T14:09:58.646Z,8
2018-12-20T14:15:00.955Z,8.1
2018-12-20T14:20:03.161Z,8.1
2018-12-20T14:25:05.651Z,8.1
2018-12-20T14:30:07.725Z,8.1
2018-12-20T14:35:10.115Z,8.2
2018-12-20T14:40:12.393Z,8.2
2018-12-20T14:45:14.751Z,8.2
2018-12-20T14:50:16.947Z,8.2
2018-12-20T14:55:19.267Z,8.2
2018-12-20T15:00:21.734Z,8.3
2018-12-20T15:05:23.762Z,8.3
2018-12-20T15:10:26.151Z,8.3
2018-12-20T15:15:28.428Z,8.3
2018-12-20T15:20:30.763Z,8.3
2018-12-20T15:25:32.973Z,8.3
2018-12-20T15:30:35.342Z,8.3
2018-12-20T15:35:37.774Z,8.2
2018-12-20T15:40:40.046Z,8.2
2018-12-20T15:45:42.094Z,8
2018-12-20T15:50:44.455Z,8
2018-12-20T15:55:46.784Z,8
2018-12-20T16:00:49.122Z,8
2018-12-20T16:05:51.477Z,8
2018-12-20T16:10:53.640Z,8
2018-12-20T16:15:56.020Z,8
2018-12-20T16:20:58.322Z,8
2018-12-20T16:26:00.558Z,8
2018-12-20T16:31:02.866Z,8.1
2018-12-20T16:36:05.168Z,8.1
2018-12-20T16:41:07.429Z,8.1
2018-12-20T16:46:09.737Z,8.1
2018-12-20T16:51:12.024Z,8.1
2018-12-20T16:56:14.270Z,8
2018-12-20T17:01:16.550Z,8
2018-12-20T17:06:18.988Z,8
2018-12-20T17:11:21.263Z,8
2018-12-20T17:16:23.432Z,7.9
2018-12-20T17:21:25.697Z,7.8
2018-12-20T17:26:28.030Z,7.7
2018-12-20T17:31:30.477Z,7.7
2018-12-20T17:36:32.715Z,7.7
2018-12-20T17:41:35.016Z,7.7
2018-12-20T17:46:37.241Z,7.7
2018-12-20T17:51:39.493Z,7.7
2018-12-20T17:56:41.837Z,7.7
2018-12-20T18:01:44.229Z,7.7
2018-12-20T18:06:46.475Z,7.7
2018-12-20T18:11:48.778Z,7.8
2018-12-20T18:16:51.019Z,7.7
2018-12-20T18:21:53.351Z,7.8
2018-12-20T18:26:55.572Z,7.8
2018-12-20T18:31:57.890Z,7.8
2018-12-20T18:37:00.254Z,7.8
2018-12-20T18:42:02.495Z,7.8
2018-12-20T18:47:04.785Z,7.8
2018-12-20T18:52:07.183Z,7.6
2018-12-20T18:57:09.313Z,7.5
2018-12-20T19:02:11.701Z,7.4
2018-12-20T19:07:14.104Z,7.4
2018-12-20T19:12:16.417Z,7.4
2018-12-20T19:17:18.519Z,7.3
2018-12-20T19:22:21.084Z,7.4
2018-12-20T19:27:23.227Z,7.3
2018-12-20T19:32:25.392Z,7.3
2018-12-20T19:37:27.736Z,7.3
2018-12-20T19:42:30.072Z,7.4
2018-12-20T19:47:32.309Z,7.4
2018-12-20T19:52:34.682Z,7.4
2018-12-20T19:57:36.961Z,7.5
2018-12-20T20:02:39.317Z,7.5
2018-12-20T20:07:41.565Z,7.5
2018-12-20T20:12:43.845Z,7.6
2018-12-20T20:17:46.109Z,7.7
2018-12-20T20:22:48.342Z,7.7
2018-12-20T20:27:50.684Z,7.7
2018-12-20T20:32:53.082Z,7.7
2018-12-20T20:37:55.406Z,7.7
2018-12-20T20:42:57.652Z,7.7
2018-12-20T20:47:59.789Z,7.8
2018-12-20T20:53:02.267Z,7.8
2018-12-20T20:58:04.490Z,7.9
2018-12-20T21:03:06.786Z,7.9
2018-12-20T21:08:09.130Z,7.9
2018-12-20T21:13:11.366Z,7.9
2018-12-20T21:18:13.622Z,7.9
2018-12-20T21:23:15.966Z,7.9
2018-12-20T21:28:18.230Z,7.9
2018-12-20T21:33:20.540Z,7.9
2018-12-20T21:38:22.728Z,7.9
2018-12-20T21:43:25.140Z,7.9
2018-12-20T21:48:27.316Z,7.9
2018-12-20T21:53:29.662Z,7.9
2018-12-20T21:58:31.981Z,7.9
2018-12-20T22:03:34.198Z,7.8
2018-12-20T22:08:36.517Z,7.9
2018-12-20T22:13:38.933Z,7.9
2018-12-20T22:18:41.169Z,7.9
2018-12-20T22:23:43.493Z,7.8
2018-12-20T22:28:45.736Z,7.8
2018-12-20T22:33:48.170Z,7.8
2018-12-20T22:38:50.277Z,7.7
2018-12-20T22:43:52.562Z,7.8
2018-12-20T22:48:55.047Z,7.8
2018-12-20T22:53:57.222Z,7.9
2018-12-20T22:58:59.551Z,8
2018-12-20T23:04:01.806Z,8
2018-12-20T23:09:04.076Z,8
2018-12-20T23:14:06.335Z,8
2018-12-20T23:19:08.597Z,8
2018-12-20T23:24:11.005Z,8
2018-12-20T23:29:13.181Z,8
2018-12-20T23:34:15.640Z,7.9
2018-12-20T23:39:17.826Z,8
2018-12-20T23:44:20.051Z,8
2018-12-20T23:49:22.503Z,8
2018-12-20T23:54:24.719Z,8
2018-12-20T23:59:26.983Z,8.1
